Time;durP1;ratioP1;P1;durP2;ratioP2;P2;SDS_P1;SDS_P2;PMS_P1;PMS_P2;Temp;Humidity;BMP_temperature;BMP_pressure;BME280_temperature;BME280_humidity;BME280_pressure;Samples;Min_cycle;Max_cycle;Signal;HPM_P1;HPM_P2
2022/06/29 00:01:28;;;;;;;12.18;4.88;;;11.00;95.20;;;;;;5051016;28;20025;-63
2022/06/29 00:03:55;;;;;;;7.63;5.10;;;11.00;94.80;;;;;;5050920;28;20040;-64
2022/06/29 00:06:22;;;;;;;10.80;5.60;;;11.20;93.70;;;;;;5049439;28;20040;-64
2022/06/29 00:08:50;;;;;;;8.63;5.25;;;11.30;93.90;;;;;;5050919;28;20787;-64
2022/06/29 00:11:17;;;;;;;11.05;5.38;;;11.50;93.50;;;;;;5051367;28;20021;-64
2022/06/29 00:13:44;;;;;;;15.48;5.85;;;11.50;93.20;;;;;;5051149;28;20028;-64
2022/06/29 00:16:11;;;;;;;6.00;4.15;;;11.70;93.50;;;;;;5050653;28;20436;-64
2022/06/29 00:18:39;;;;;;;7.63;3.97;;;11.80;93.20;;;;;;5050644;28;20119;-64
2022/06/29 00:21:06;;;;;;;6.82;3.70;;;12.00;92.20;;;;;;5050480;28;20071;-64
2022/06/29 00:23:33;;;;;;;9.60;3.83;;;12.00;91.30;;;;;;5050748;28;20029;-64
2022/06/29 00:26:00;;;;;;;8.80;3.55;;;12.20;90.50;;;;;;5050644;28;20048;-64
2022/06/29 00:28:29;;;;;;;7.13;3.65;;;12.30;90.00;;;;;;5048977;28;20040;-64
2022/06/29 00:30:57;;;;;;;7.72;2.85;;;12.40;90.30;;;;;;5050396;28;20029;-65
2022/06/29 00:33:24;;;;;;;6.57;2.85;;;12.50;90.10;;;;;;5050358;28;20029;-65
2022/06/29 00:35:51;;;;;;;5.05;2.88;;;12.60;87.90;;;;;;5050214;28;20025;-64
2022/06/29 00:38:19;;;;;;;4.47;2.30;;;12.70;88.00;;;;;;5050184;28;20017;-64
2022/06/29 00:40:46;;;;;;;7.30;3.30;;;12.90;88.50;;;;;;5051132;28;20021;-62
2022/06/29 00:43:13;;;;;;;6.15;2.53;;;13.00;86.30;;;;;;5050937;28;20048;-60
2022/06/29 00:45:40;;;;;;;6.65;2.63;;;13.10;87.20;;;;;;5051600;28;20033;-62
2022/06/29 00:48:08;;;;;;;5.88;1.95;;;13.20;84.60;;;;;;5051674;28;20036;-62
2022/06/29 00:50:42;;;;;;;6.32;2.60;;;13.40;85.40;;;;;;5051462;28;20025;-62
2022/06/29 00:53:14;;;;;;;7.13;3.15;;;13.50;83.70;;;;;;5051647;28;20489;-62
2022/06/29 00:55:44;;;;;;;5.53;1.95;;;13.60;82.50;;;;;;5050555;28;20033;-62
2022/06/29 00:58:12;;;;;;;6.05;2.40;;;13.70;84.10;;;;;;5051431;28;20385;-60
2022/06/29 01:00:39;;;;;;;7.00;2.40;;;13.80;83.00;;;;;;5051553;28;20072;-62
2022/06/29 01:03:07;;;;;;;3.55;1.90;;;13.90;81.30;;;;;;5051478;28;20025;-61
2022/06/29 01:05:35;;;;;;;6.03;2.40;;;14.00;78.40;;;;;;5051039;28;20021;-61
2022/06/29 01:08:02;;;;;;;6.72;2.67;;;14.10;80.40;;;;;;5051339;28;20388;-61
2022/06/29 01:10:29;;;;;;;6.95;3.22;;;14.10;79.60;;;;;;5051122;28;20025;-61
2022/06/29 01:12:57;;;;;;;6.20;3.08;;;14.20;81.00;;;;;;5051023;28;20024;-62
2022/06/29 01:15:25;;;;;;;6.88;2.95;;;14.30;80.20;;;;;;5050907;28;20084;-62
2022/06/29 01:17:52;;;;;;;5.60;2.70;;;14.40;81.70;;;;;;5047464;28;20025;-61
2022/06/29 01:20:19;;;;;;;7.65;2.20;;;14.50;79.60;;;;;;5028466;28;20491;-61
2022/06/29 01:22:46;;;;;;;5.57;1.70;;;14.70;79.70;;;;;;5029089;28;20032;-62
2022/06/29 01:25:14;;;;;;;6.88;2.42;;;14.90;74.30;;;;;;5027654;28;20029;-63
2022/06/29 01:27:41;;;;;;;3.50;1.75;;;15.00;75.40;;;;;;5028654;28;20037;-61
2022/06/29 01:30:09;;;;;;;8.05;1.73;;;15.10;76.70;;;;;;5028024;28;20108;-61
2022/06/29 01:32:40;;;;;;;6.75;1.60;;;15.20;75.70;;;;;;5028462;28;20056;-61
2022/06/29 01:35:11;;;;;;;9.15;1.90;;;15.40;71.70;;;;;;5028028;28;20100;-61
2022/06/29 01:37:42;;;;;;;7.57;1.30;;;15.50;73.50;;;;;;5028491;28;20475;-61
2022/06/29 01:40:11;;;;;;;7.05;1.50;;;15.60;71.50;;;;;;5028238;28;20042;-62
2022/06/29 01:42:38;;;;;;;10.38;2.33;;;15.70;69.40;;;;;;5028028;28;20032;-62
2022/06/29 01:45:06;;;;;;;4.13;1.52;;;15.90;71.20;;;;;;5028267;28;20025;-62
2022/06/29 01:47:34;;;;;;;4.07;1.40;;;16.00;70.20;;;;;;5029947;28;20103;-65
2022/06/29 01:50:01;;;;;;;5.03;1.08;;;16.00;70.30;;;;;;5029327;28;20036;-61
2022/06/29 01:52:28;;;;;;;5.72;1.40;;;16.00;68.40;;;;;;5030058;28;20085;-61
2022/06/29 01:54:55;;;;;;;5.50;1.30;;;16.00;69.10;;;;;;5027899;28;20113;-61
2022/06/29 01:57:23;;;;;;;5.15;1.58;;;16.10;68.60;;;;;;5030473;28;20021;-61
2022/06/29 01:59:50;;;;;;;4.65;1.10;;;16.10;69.10;;;;;;5030368;28;20037;-62
2022/06/29 02:02:17;;;;;;;5.95;1.30;;;16.30;67.50;;;;;;5029218;28;20464;-62
2022/06/29 02:04:44;;;;;;;3.92;1.23;;;16.30;68.00;;;;;;5028498;28;20109;-62
2022/06/29 02:07:12;;;;;;;2.10;1.05;;;16.50;67.40;;;;;;5028359;28;20049;-62
2022/06/29 02:09:39;;;;;;;2.38;1.10;;;16.50;66.30;;;;;;5028437;28;20478;-62
2022/06/29 02:12:06;;;;;;;4.47;0.90;;;16.70;67.10;;;;;;5028542;28;20081;-62
2022/06/29 02:14:34;;;;;;;5.22;1.25;;;16.80;66.10;;;;;;5028599;28;20053;-62
2022/06/29 02:17:01;;;;;;;3.85;1.02;;;17.00;65.50;;;;;;5029275;28;20052;-62
2022/06/29 02:19:28;;;;;;;4.10;1.20;;;17.00;64.30;;;;;;5029831;28;20069;-62
2022/06/29 02:21:56;;;;;;;1.15;0.50;;;17.00;63.80;;;;;;5030096;28;20442;-62
2022/06/29 02:24:23;;;;;;;4.68;1.00;;;17.10;63.50;;;;;;5029971;28;20018;-62
2022/06/29 02:26:50;;;;;;;4.70;0.90;;;17.10;63.30;;;;;;5030004;28;20040;-62
2022/06/29 02:29:17;;;;;;;5.10;0.63;;;17.10;64.00;;;;;;5030251;28;20060;-62
2022/06/29 02:34:46;;;;;;;2.05;1.10;;;17.20;63.50;;;;;;5029648;28;20040;-62
2022/06/29 02:37:16;;;;;;;2.92;0.70;;;17.30;63.50;;;;;;5029844;28;20728;-62
2022/06/29 02:39:44;;;;;;;0.98;0.45;;;17.40;62.40;;;;;;5029695;28;20041;-62
2022/06/29 02:42:13;;;;;;;3.88;0.73;;;17.40;61.50;;;;;;5029720;28;20442;-61
2022/06/29 02:44:41;;;;;;;2.95;0.80;;;17.40;61.60;;;;;;5028335;28;20731;-62
2022/06/29 02:47:09;;;;;;;2.55;0.65;;;17.40;61.00;;;;;;5029724;28;20377;-62
2022/06/29 02:49:37;;;;;;;1.85;0.50;;;17.50;61.10;;;;;;5029323;28;20053;-62
2022/06/29 02:52:04;;;;;;;3.90;0.68;;;17.40;60.10;;;;;;5029675;28;20022;-62
2022/06/29 02:54:32;;;;;;;2.45;0.85;;;17.40;61.00;;;;;;5029452;28;20014;-62
2022/06/29 02:56:59;;;;;;;5.13;1.33;;;17.40;61.60;;;;;;5030018;28;20048;-62
2022/06/29 02:59:26;;;;;;;6.38;0.57;;;17.50;60.10;;;;;;5029677;28;20087;-62
2022/06/29 03:01:53;;;;;;;2.58;0.60;;;17.40;60.40;;;;;;5029717;28;20458;-62
2022/06/29 03:04:21;;;;;;;3.58;0.75;;;17.50;61.00;;;;;;5029461;28;20433;-62
2022/06/29 03:06:48;;;;;;;2.65;0.60;;;17.50;61.00;;;;;;5029961;28;20101;-62
2022/06/29 03:09:15;;;;;;;0.88;0.32;;;17.60;61.50;;;;;;5028403;28;20036;-62
2022/06/29 03:11:42;;;;;;;2.55;0.50;;;17.70;60.00;;;;;;5029473;28;20056;-62
2022/06/29 03:14:10;;;;;;;1.88;0.70;;;17.70;60.40;;;;;;5029534;28;20045;-62
2022/06/29 03:16:37;;;;;;;0.82;0.32;;;17.70;60.10;;;;;;5029171;28;20050;-62
2022/06/29 03:19:04;;;;;;;2.10;0.55;;;17.70;60.40;;;;;;5030141;28;20034;-62
2022/06/29 03:21:32;;;;;;;4.35;1.48;;;17.80;59.60;;;;;;5033377;28;20014;-62
2022/06/29 03:23:59;;;;;;;1.15;0.50;;;17.80;60.00;;;;;;5033280;28;20076;-62
2022/06/29 03:26:26;;;;;;;5.82;1.15;;;17.70;59.40;;;;;;5033181;28;20093;-62
2022/06/29 03:28:53;;;;;;;4.28;0.70;;;17.70;59.50;;;;;;5033127;28;20034;-62
2022/06/29 03:31:21;;;;;;;3.00;0.63;;;17.70;59.50;;;;;;5033486;28;20091;-62
2022/06/29 03:33:48;;;;;;;2.55;0.60;;;17.70;59.40;;;;;;5033334;28;20025;-62
2022/06/29 03:36:16;;;;;;;1.50;0.55;;;17.50;59.50;;;;;;5032972;28;20033;-62
2022/06/29 03:38:43;;;;;;;2.03;0.70;;;17.50;60.00;;;;;;5032923;28;20037;-60
2022/06/29 03:41:10;;;;;;;0.77;0.50;;;17.60;60.00;;;;;;5032832;28;20083;-62
2022/06/29 03:43:37;;;;;;;0.73;0.50;;;17.70;59.10;;;;;;5032834;28;20541;-62
2022/06/29 03:46:05;;;;;;;0.63;0.40;;;17.70;60.10;;;;;;5032917;28;20029;-62
2022/06/29 03:48:32;;;;;;;3.00;1.00;;;17.80;59.00;;;;;;5032496;28;20482;-62
2022/06/29 03:50:59;;;;;;;2.25;0.40;;;17.80;59.40;;;;;;5032923;28;20049;-60
2022/06/29 03:53:27;;;;;;;2.67;0.50;;;17.90;59.80;;;;;;5032587;28;20563;-61
2022/06/29 03:55:54;;;;;;;1.55;0.30;;;18.10;59.20;;;;;;5032768;28;20029;-61
2022/06/29 03:58:21;;;;;;;3.17;0.50;;;18.20;58.90;;;;;;5032774;28;20029;-61
2022/06/29 04:00:48;;;;;;;7.82;1.17;;;18.30;58.20;;;;;;5033060;28;20021;-62
2022/06/29 04:03:16;;;;;;;3.05;0.55;;;18.40;57.60;;;;;;5032472;28;20026;-61
2022/06/29 04:05:43;;;;;;;4.05;0.47;;;18.40;57.70;;;;;;5032523;28;20068;-61
2022/06/29 04:08:10;;;;;;;1.25;0.60;;;18.40;58.10;;;;;;5032565;28;20033;-61
2022/06/29 04:10:38;;;;;;;4.40;0.47;;;18.40;58.30;;;;;;5032339;28;20017;-61
2022/06/29 04:13:05;;;;;;;6.18;0.77;;;18.50;57.80;;;;;;5032491;28;20033;-61
2022/06/29 04:15:33;;;;;;;1.60;0.57;;;18.50;57.50;;;;;;5032200;28;20124;-61
2022/06/29 04:18:00;;;;;;;3.65;0.60;;;18.40;57.00;;;;;;5032275;28;20029;-62
2022/06/29 04:23:13;;;;;;;2.45;0.50;;;18.10;57.40;;;;;;5032467;28;20047;-63
2022/06/29 04:25:40;;;;;;;5.32;1.90;;;18.10;58.20;;;;;;5030881;28;20033;-68
2022/06/29 04:28:07;;;;;;;1.17;0.47;;;18.10;57.70;;;;;;5032123;28;20041;-65
2022/06/29 04:30:35;;;;;;;4.07;0.88;;;18.00;57.70;;;;;;5030728;28;20021;-67
2022/06/29 04:33:02;;;;;;;3.55;0.50;;;18.10;58.10;;;;;;5030496;28;20442;-67
2022/06/29 04:35:29;;;;;;;2.53;0.47;;;18.00;58.00;;;;;;5034229;28;20025;-66
2022/06/29 04:37:57;;;;;;;4.18;0.68;;;18.00;57.90;;;;;;5040328;28;20025;-66
2022/06/29 04:40:24;;;;;;;3.17;0.60;;;18.00;59.10;;;;;;5033558;28;20511;-66
2022/06/29 04:42:51;;;;;;;1.83;0.65;;;18.00;59.20;;;;;;5032083;28;20022;-65
2022/06/29 04:48:04;;;;;;;1.80;0.52;;;17.90;59.10;;;;;;5034244;28;20040;-65
2022/06/29 04:50:31;;;;;;;2.78;0.55;;;17.80;58.40;;;;;;5031804;28;20029;-65
2022/06/29 04:52:59;;;;;;;4.53;0.85;;;17.70;58.30;;;;;;5032726;28;20017;-65
2022/06/29 04:55:29;;;;;;;1.02;0.50;;;17.60;58.70;;;;;;5033335;28;20043;-64
2022/06/29 04:57:56;;;;;;;0.50;0.32;;;17.40;58.60;;;;;;5045960;28;20029;-63
2022/06/29 05:00:24;;;;;;;1.90;0.63;;;17.40;58.80;;;;;;5051489;28;20033;-65
2022/06/29 05:02:51;;;;;;;5.88;0.95;;;17.30;59.70;;;;;;5051547;28;20381;-65
2022/06/29 05:05:19;;;;;;;4.93;0.60;;;17.20;59.80;;;;;;5051677;28;20021;-64
2022/06/29 05:07:47;;;;;;;2.47;0.98;;;17.10;60.50;;;;;;5051681;28;20461;-66
2022/06/29 05:10:15;;;;;;;5.32;0.68;;;17.00;60.00;;;;;;5051252;28;20033;-65
2022/06/29 05:12:43;;;;;;;1.50;0.40;;;16.90;60.30;;;;;;5051376;28;20536;-65
2022/06/29 05:15:10;;;;;;;8.27;0.70;;;16.90;61.50;;;;;;5050853;28;20078;-65
2022/06/29 05:17:39;;;;;;;4.50;0.70;;;16.80;61.40;;;;;;5051132;28;20025;-63
2022/06/29 05:20:11;;;;;;;2.75;0.50;;;16.80;61.40;;;;;;5050664;28;20064;-60
2022/06/29 05:22:38;;;;;;;2.13;0.60;;;16.70;61.60;;;;;;5051172;28;20057;-60
2022/06/29 05:25:06;;;;;;;5.35;0.95;;;16.70;62.10;;;;;;5050849;28;20109;-59
2022/06/29 05:27:34;;;;;;;5.63;0.77;;;16.60;63.00;;;;;;5050962;28;20590;-62
2022/06/29 05:30:01;;;;;;;2.92;0.95;;;16.60;63.00;;;;;;5050967;28;20074;-62
2022/06/29 05:32:28;;;;;;;5.93;1.00;;;16.50;62.70;;;;;;5050866;28;20021;-62
2022/06/29 05:34:56;;;;;;;1.45;0.60;;;16.50;63.20;;;;;;5049338;28;20029;-62
2022/06/29 05:37:24;;;;;;;4.15;1.05;;;16.40;63.10;;;;;;5039672;28;20061;-66
2022/06/29 05:39:52;;;;;;;0.82;0.40;;;16.30;62.80;;;;;;5028556;28;20100;-66
2022/06/29 05:42:19;;;;;;;3.53;1.20;;;16.20;63.60;;;;;;5028080;28;20032;-67
2022/06/29 05:44:46;;;;;;;6.25;0.98;;;16.10;64.00;;;;;;5039295;28;20039;-66
2022/06/29 05:47:14;;;;;;;3.33;0.90;;;16.00;64.70;;;;;;5043444;28;20025;-66
2022/06/29 05:49:42;;;;;;;3.40;1.15;;;15.90;64.90;;;;;;5044071;28;20107;-67
2022/06/29 05:52:12;;;;;;;3.15;1.08;;;15.80;65.40;;;;;;5029001;28;20025;-66
2022/06/29 05:54:39;;;;;;;2.15;0.65;;;15.70;65.70;;;;;;5041168;28;20031;-67
2022/06/29 05:57:07;;;;;;;5.50;0.80;;;15.60;66.00;;;;;;5040962;28;20034;-66
2022/06/29 05:59:34;;;;;;;2.03;1.10;;;15.50;66.30;;;;;;5036766;28;20091;-67
2022/06/29 06:02:02;;;;;;;4.00;0.88;;;15.40;66.90;;;;;;5047873;28;20083;-66
2022/06/29 06:04:29;;;;;;;2.92;0.90;;;15.30;67.20;;;;;;5044448;28;20036;-67
2022/06/29 06:06:56;;;;;;;2.13;0.90;;;15.30;67.40;;;;;;5033614;28;20033;-67
2022/06/29 06:09:27;;;;;;;3.85;0.63;;;15.20;67.80;;;;;;5026161;28;20037;-67
2022/06/29 06:11:55;;;;;;;4.35;0.70;;;15.20;67.90;;;;;;5038996;28;20464;-67
2022/06/29 06:14:23;;;;;;;3.50;0.93;;;15.10;68.00;;;;;;5027544;28;20067;-65
2022/06/29 06:16:50;;;;;;;2.65;0.80;;;15.10;68.30;;;;;;5042247;28;20049;-67
2022/06/29 06:19:17;;;;;;;8.73;2.08;;;15.00;68.30;;;;;;5047022;28;20047;-67
2022/06/29 06:21:47;;;;;;;5.75;2.08;;;15.00;68.30;;;;;;5039005;28;20052;-67
2022/06/29 06:24:14;;;;;;;27.65;4.40;;;15.00;68.90;;;;;;5039535;28;20021;-67
2022/06/29 06:26:42;;;;;;;5.82;2.03;;;14.90;69.20;;;;;;5053383;28;20496;-66
2022/06/29 06:29:09;;;;;;;7.78;2.10;;;14.90;69.40;;;;;;5046928;28;20036;-65
2022/06/29 06:31:37;;;;;;;3.00;1.30;;;14.80;69.50;;;;;;5036248;28;20071;-66
2022/06/29 06:34:04;;;;;;;9.30;2.35;;;14.70;69.90;;;;;;5042214;28;20056;-67
2022/06/29 06:36:31;;;;;;;3.13;1.20;;;14.60;70.20;;;;;;5038812;28;20029;-67
2022/06/29 06:38:59;;;;;;;3.40;1.25;;;14.50;70.80;;;;;;5037491;28;20115;-67
2022/06/29 06:41:26;;;;;;;1.83;0.80;;;14.40;72.00;;;;;;5049152;28;20032;-67
2022/06/29 06:43:56;;;;;;;2.45;0.90;;;14.30;72.10;;;;;;5048893;28;20544;-67
2022/06/29 06:46:24;;;;;;;6.60;1.88;;;14.20;72.30;;;;;;5043192;28;20124;-66
2022/06/29 06:48:53;;;;;;;2.85;1.10;;;14.10;73.20;;;;;;5058877;28;20473;-66
2022/06/29 06:51:21;;;;;;;10.68;2.38;;;14.10;73.40;;;;;;5054021;28;20024;-66
2022/06/29 06:53:49;;;;;;;8.70;3.33;;;13.90;73.70;;;;;;5044515;28;20052;-66
2022/06/29 06:56:17;;;;;;;4.38;2.35;;;13.80;73.90;;;;;;5069513;28;20056;-67
2022/06/29 06:58:44;;;;;;;8.40;3.60;;;13.70;74.10;;;;;;5066957;28;20037;-66
2022/06/29 07:01:12;;;;;;;6.18;3.40;;;13.60;74.90;;;;;;5044567;28;20018;-67
2022/06/29 07:03:39;;;;;;;11.50;4.90;;;13.40;75.20;;;;;;5046671;28;20025;-69
2022/06/29 07:06:11;;;;;;;5.75;3.13;;;13.30;75.80;;;;;;5046840;28;20120;-68
2022/06/29 07:08:39;;;;;;;6.10;2.78;;;13.10;76.20;;;;;;5043975;28;20071;-70
2022/06/29 07:11:08;;;;;;;4.65;1.83;;;13.00;76.80;;;;;;5038190;28;20037;-70
2022/06/29 07:13:36;;;;;;;4.05;1.63;;;12.80;78.20;;;;;;5033670;28;20515;-69
2022/06/29 07:16:05;;;;;;;4.03;1.40;;;12.80;78.90;;;;;;5050299;28;20049;-70
2022/06/29 07:18:33;;;;;;;5.35;1.50;;;12.60;79.20;;;;;;5055371;28;20688;-69
2022/06/29 07:21:02;;;;;;;4.38;1.83;;;12.60;80.30;;;;;;5048928;28;20029;-68
2022/06/29 07:23:29;;;;;;;11.02;5.65;;;12.50;80.40;;;;;;5051258;28;20024;-68
2022/06/29 07:25:57;;;;;;;10.57;4.10;;;12.50;81.20;;;;;;5059761;28;20401;-69
2022/06/29 07:28:25;;;;;;;10.02;4.65;;;12.60;81.20;;;;;;5045693;28;20029;-70
2022/06/29 07:30:52;;;;;;;9.52;4.57;;;12.50;81.20;;;;;;5050533;28;20028;-69
2022/06/29 07:33:19;;;;;;;5.97;2.45;;;12.50;81.90;;;;;;5038773;28;20005;-69
2022/06/29 07:35:47;;;;;;;6.13;1.58;;;12.60;81.30;;;;;;5056333;28;20035;-71
2022/06/29 07:38:14;;;;;;;6.47;1.90;;;12.60;81.80;;;;;;5057307;28;20033;-70
2022/06/29 07:40:41;;;;;;;5.03;2.85;;;12.70;82.10;;;;;;5055720;28;20111;-71
2022/06/29 07:43:09;;;;;;;6.18;1.98;;;12.70;81.70;;;;;;5062073;28;20473;-71
2022/06/29 07:45:36;;;;;;;3.38;1.50;;;12.80;81.50;;;;;;5049561;28;20024;-70
2022/06/29 07:48:03;;;;;;;6.55;1.85;;;12.80;81.20;;;;;;5058969;28;20043;-70
2022/06/29 07:50:31;;;;;;;5.53;1.60;;;12.70;80.80;;;;;;5053362;28;20028;-71
2022/06/29 07:52:58;;;;;;;5.40;1.73;;;12.70;81.90;;;;;;5065196;28;20063;-72
2022/06/29 07:55:26;;;;;;;3.55;1.63;;;12.70;83.20;;;;;;5051870;28;20025;-71
2022/06/29 07:57:53;;;;;;;4.95;1.73;;;12.70;82.50;;;;;;5059556;28;20033;-70
2022/06/29 08:00:22;;;;;;;3.60;1.42;;;12.70;82.20;;;;;;5056828;28;20068;-69
2022/06/29 08:02:51;;;;;;;6.43;2.42;;;12.80;82.10;;;;;;5047976;28;20480;-69
2022/06/29 08:05:18;;;;;;;11.82;3.83;;;12.70;82.30;;;;;;5043858;28;20029;-69
2022/06/29 08:07:46;;;;;;;9.60;2.40;;;12.70;82.50;;;;;;5059379;28;20103;-70
2022/06/29 08:10:14;;;;;;;4.68;2.30;;;12.70;82.20;;;;;;5060884;28;20632;-69
2022/06/29 08:12:42;;;;;;;4.70;1.80;;;12.80;82.30;;;;;;5046579;28;20079;-68
2022/06/29 08:15:10;;;;;;;4.50;1.48;;;12.80;82.10;;;;;;5067539;28;20024;-69
2022/06/29 08:17:38;;;;;;;4.18;1.33;;;12.70;81.70;;;;;;5048574;28;20032;-69
2022/06/29 08:20:06;;;;;;;7.38;2.63;;;12.70;81.80;;;;;;5057232;28;20072;-69
2022/06/29 08:22:34;;;;;;;4.63;2.47;;;12.60;82.30;;;;;;5058399;28;20028;-69
2022/06/29 08:25:01;;;;;;;4.30;2.58;;;12.60;82.30;;;;;;5041448;28;20382;-68
2022/06/29 08:27:31;;;;;;;6.32;3.80;;;12.60;82.10;;;;;;5067061;28;20547;-68
2022/06/29 08:29:59;;;;;;;10.82;3.63;;;12.60;82.20;;;;;;5049686;28;20115;-68
2022/06/29 08:32:27;;;;;;;8.07;3.33;;;12.50;82.70;;;;;;5046301;28;20091;-66
2022/06/29 08:34:59;;;;;;;7.82;3.30;;;12.40;82.70;;;;;;5046303;28;20396;-66
2022/06/29 08:37:27;;;;;;;11.52;3.30;;;12.30;82.80;;;;;;5051553;28;20021;-68
2022/06/29 08:39:54;;;;;;;8.30;3.17;;;12.30;83.80;;;;;;5049690;28;20033;-66
2022/06/29 08:42:25;;;;;;;7.72;3.25;;;12.30;84.00;;;;;;5039297;28;20464;-68
2022/06/29 08:44:53;;;;;;;4.95;2.13;;;12.20;83.90;;;;;;5042213;28;20516;-67
2022/06/29 08:47:20;;;;;;;5.38;2.88;;;12.20;83.90;;;;;;5048133;28;20037;-60
2022/06/29 08:49:48;;;;;;;4.60;2.08;;;12.10;84.10;;;;;;5051014;28;20108;-63
2022/06/29 08:52:16;;;;;;;4.57;2.05;;;12.10;84.50;;;;;;5061080;28;20028;-68
2022/06/29 08:54:48;;;;;;;8.93;2.00;;;12.00;85.30;;;;;;5045319;28;20040;-69
2022/06/29 08:57:17;;;;;;;5.15;1.85;;;11.90;84.80;;;;;;5053970;28;20688;-69
2022/06/29 08:59:44;;;;;;;6.75;1.98;;;11.90;85.20;;;;;;5063960;28;20260;-67
2022/06/29 09:02:13;;;;;;;8.57;2.20;;;11.70;85.10;;;;;;5030239;28;20041;-67
2022/06/29 09:04:40;;;;;;;5.97;2.47;;;11.70;85.60;;;;;;5029156;28;20033;-67
2022/06/29 09:07:08;;;;;;;10.23;3.55;;;11.60;86.10;;;;;;5034657;28;20116;-66
2022/06/29 09:09:58;;;;;;;7.00;2.47;;;11.50;87.30;;;;;;5045069;28;20395;-67
2022/06/29 09:12:26;;;;;;;5.72;2.22;;;11.50;86.70;;;;;;5032020;28;20064;-67
2022/06/29 09:14:53;;;;;;;5.78;2.13;;;11.40;87.20;;;;;;5052174;28;20032;-67
2022/06/29 09:17:21;;;;;;;7.35;2.17;;;11.30;87.00;;;;;;5041535;28;20044;-67
2022/06/29 09:19:49;;;;;;;9.75;3.83;;;11.20;85.90;;;;;;5051702;28;20047;-67
2022/06/29 09:22:16;;;;;;;6.95;2.58;;;11.10;87.20;;;;;;5046238;28;20489;-67
2022/06/29 09:24:44;;;;;;;6.10;2.95;;;11.10;87.70;;;;;;5049524;28;20631;-67
2022/06/29 09:27:12;;;;;;;5.50;2.90;;;11.00;88.10;;;;;;5041946;28;20025;-67
2022/06/29 09:29:41;;;;;;;5.65;2.40;;;11.00;88.10;;;;;;5040828;28;20076;-66
2022/06/29 09:32:17;;;;;;;7.13;2.20;;;10.90;88.10;;;;;;5040951;28;20038;-67
2022/06/29 09:34:47;;;;;;;4.68;2.30;;;10.80;88.40;;;;;;5027252;28;20017;-67
2022/06/29 09:37:17;;;;;;;7.38;2.33;;;10.70;88.50;;;;;;5028139;28;20029;-67
2022/06/29 09:39:47;;;;;;;7.63;2.20;;;10.60;88.80;;;;;;5027260;28;20682;-68
2022/06/29 09:42:26;;;;;;;5.57;2.08;;;10.50;89.40;;;;;;5028221;28;20057;-68
2022/06/29 09:44:54;;;;;;;7.28;2.55;;;10.40;90.00;;;;;;5036492;28;20080;-67
2022/06/29 09:47:22;;;;;;;5.13;2.03;;;10.30;90.30;;;;;;5028509;28;20025;-68
2022/06/29 09:49:54;;;;;;;8.50;2.40;;;10.30;90.50;;;;;;5028532;28;20108;-67
2022/06/29 09:52:22;;;;;;;6.45;2.50;;;10.20;90.70;;;;;;5029355;28;20562;-68
2022/06/29 09:54:57;;;;;;;8.32;2.53;;;10.20;90.90;;;;;;5028439;28;20083;-67
2022/06/29 09:57:28;;;;;;;8.32;3.28;;;10.10;91.10;;;;;;5029476;28;20435;-67
2022/06/29 10:02:55;;;;;;;8.90;4.80;;;10.10;91.70;;;;;;5043429;28;20044;-66
2022/06/29 10:05:27;;;;;;;10.68;7.00;;;10.10;91.60;;;;;;5027714;28;20330;-67
2022/06/29 10:07:56;;;;;;;15.57;5.45;;;10.10;91.60;;;;;;5029767;28;20087;-67
2022/06/29 10:10:26;;;;;;;11.23;3.65;;;10.00;91.70;;;;;;5027973;28;20021;-66
2022/06/29 10:13:42;;;;;;;7.70;3.78;;;10.00;91.80;;;;;;5043008;28;20032;-66
2022/06/29 10:16:15;;;;;;;7.95;4.40;;;10.00;92.00;;;;;;5029256;28;20168;-66
2022/06/29 10:18:59;;;;;;;7.28;3.97;;;10.00;92.00;;;;;;5030346;28;20035;-67
2022/06/29 10:21:31;;;;;;;7.38;4.00;;;10.00;92.20;;;;;;5043731;28;20416;-68
2022/06/29 10:24:02;;;;;;;6.38;3.35;;;10.00;92.00;;;;;;5039930;28;20600;-68
2022/06/29 10:29:06;;;;;;;7.10;3.30;;;10.10;92.30;;;;;;5047195;28;20091;-68
2022/06/29 10:31:53;;;;;;;11.88;4.22;;;10.10;92.30;;;;;;5038959;28;20052;-68
2022/06/29 10:34:38;;;;;;;6.35;3.45;;;10.10;92.20;;;;;;5044536;28;20056;-67
2022/06/29 10:37:15;;;;;;;6.07;3.42;;;10.10;92.10;;;;;;5044708;28;20036;-67
2022/06/29 10:39:48;;;;;;;7.00;3.50;;;10.00;92.10;;;;;;5033177;28;20379;-67
2022/06/29 10:45:18;;;;;;;8.52;3.17;;;10.00;92.20;;;;;;5032715;28;20052;-67
2022/06/29 10:47:48;;;;;;;9.98;3.92;;;10.00;92.40;;;;;;5042370;28;20041;-68
2022/06/29 10:50:20;;;;;;;8.18;3.53;;;9.90;92.40;;;;;;5027798;28;20029;-68
2022/06/29 10:52:49;;;;;;;10.23;4.80;;;9.90;92.50;;;;;;5027209;28;20025;-68
2022/06/29 10:55:17;;;;;;;17.38;5.68;;;9.90;92.60;;;;;;5027238;28;20024;-68
2022/06/29 10:57:45;;;;;;;8.52;3.90;;;9.90;92.70;;;;;;5033238;28;20029;-67
2022/06/29 11:00:38;;;;;;;9.82;3.85;;;9.90;92.70;;;;;;5034387;28;20049;-68
2022/06/29 11:03:19;;;;;;;5.65;3.38;;;9.90;92.60;;;;;;5037251;28;20021;-67
2022/06/29 11:16:55;;;;;;;10.30;5.10;;;9.80;92.70;;;;;;5027019;28;20127;-66
2022/06/29 11:19:29;;;;;;;10.20;6.53;;;9.70;92.50;;;;;;5027730;28;20037;-67
2022/06/29 11:22:15;;;;;;;15.77;8.48;;;9.70;92.80;;;;;;5029891;28;20037;-68
2022/06/29 11:25:00;;;;;;;17.65;8.95;;;9.60;92.90;;;;;;5038338;28;20494;-67
2022/06/29 11:27:35;;;;;;;;;;;9.60;93.40;;;;;;5036517;28;20033;-67
2022/06/29 11:30:07;;;;;;;11.60;6.47;;;9.70;93.80;;;;;;5026996;28;19909;-67
2022/06/29 11:32:39;;;;;;;11.75;5.90;;;9.80;93.70;;;;;;5030165;28;20082;-67
2022/06/29 11:35:10;;;;;;;14.60;7.00;;;9.80;93.70;;;;;;5040171;28;20144;-66
2022/06/29 11:37:38;;;;;;;12.77;5.65;;;9.80;93.80;;;;;;5032928;28;20020;-66
2022/06/29 11:40:06;;;;;;;15.93;8.80;;;9.90;93.80;;;;;;5035063;28;20038;-66
2022/06/29 11:45:21;;;;;;;17.75;8.93;;;10.10;93.30;;;;;;5045395;28;20421;-66
2022/06/29 11:47:55;;;;;;;16.13;8.10;;;10.10;93.00;;;;;;5044802;28;20095;-66
2022/06/29 11:50:23;;;;;;;15.52;8.25;;;10.00;92.90;;;;;;5036710;28;20028;-65
2022/06/29 11:52:51;;;;;;;16.17;9.63;;;10.00;93.00;;;;;;5057166;28;20032;-66
2022/06/29 11:55:42;;;;;;;20.15;9.25;;;10.00;93.00;;;;;;5032705;28;20405;-65
2022/06/29 11:58:18;;;;;;;14.68;8.45;;;10.00;93.10;;;;;;5046937;28;20063;-66
2022/06/29 12:00:45;;;;;;;17.48;8.40;;;9.90;93.10;;;;;;5042256;28;20049;-69
2022/06/29 12:03:16;;;;;;;13.43;7.65;;;9.90;93.10;;;;;;5026590;28;20025;-67
2022/06/29 12:05:59;;;;;;;15.57;7.43;;;9.80;93.10;;;;;;5041036;28;20150;-67
2022/06/29 12:08:29;;;;;;;15.30;7.72;;;9.80;93.10;;;;;;5048967;28;20349;-66
2022/06/29 12:10:57;;;;;;;17.95;8.18;;;9.70;93.20;;;;;;5042643;28;20486;-66
2022/06/29 12:13:28;;;;;;;15.48;7.95;;;9.70;93.40;;;;;;5056263;28;20059;-67
2022/06/29 12:15:55;;;;;;;12.25;7.63;;;9.60;93.40;;;;;;5041454;28;20042;-66
2022/06/29 12:18:22;;;;;;;14.43;6.95;;;9.60;93.40;;;;;;5048822;28;20031;-67
2022/06/29 12:20:50;;;;;;;15.20;7.57;;;9.50;93.50;;;;;;5038158;28;20065;-66
2022/06/29 12:23:17;;;;;;;15.13;9.10;;;9.50;93.80;;;;;;5044350;28;20017;-67
2022/06/29 12:25:45;;;;;;;13.15;8.05;;;9.50;93.90;;;;;;5032382;28;20068;-67
2022/06/29 12:28:12;;;;;;;12.25;8.15;;;9.50;94.00;;;;;;5057788;28;20134;-67
2022/06/29 12:30:40;;;;;;;13.25;7.45;;;9.40;94.00;;;;;;5038137;28;20057;-67
2022/06/29 12:33:09;;;;;;;9.95;6.63;;;9.40;94.20;;;;;;5043835;28;20032;-66
2022/06/29 12:35:37;;;;;;;14.25;7.72;;;9.30;94.20;;;;;;5038442;28;20036;-68
2022/06/29 12:38:05;;;;;;;11.48;6.85;;;9.30;94.40;;;;;;5047788;28;20124;-66
2022/06/29 12:40:32;;;;;;;15.48;7.47;;;9.30;94.50;;;;;;5039396;28;20040;-67
2022/06/29 12:43:00;;;;;;;37.50;18.80;;;9.20;94.50;;;;;;5049512;28;20028;-68
2022/06/29 12:45:27;;;;;;;42.05;24.88;;;9.20;94.30;;;;;;5051266;28;20087;-66
2022/06/29 12:47:55;;;;;;;35.53;19.27;;;9.10;94.40;;;;;;5045052;28;20025;-67
2022/06/29 12:50:22;;;;;;;30.77;20.00;;;9.00;94.50;;;;;;5042379;28;20441;-66
2022/06/29 12:52:51;;;;;;;23.73;14.30;;;8.90;94.40;;;;;;5048078;28;20018;-67
2022/06/29 12:55:22;;;;;;;20.58;11.85;;;8.80;94.50;;;;;;5057138;28;20056;-67
2022/06/29 12:57:49;;;;;;;23.05;11.95;;;8.80;94.50;;;;;;5039271;28;20136;-67
2022/06/29 13:00:17;;;;;;;18.20;9.30;;;8.70;94.80;;;;;;5040869;28;20047;-65
2022/06/29 13:02:45;;;;;;;11.18;7.13;;;8.70;95.20;;;;;;5046807;28;20112;-66
2022/06/29 13:05:12;;;;;;;17.10;7.72;;;8.70;95.20;;;;;;5039935;28;20032;-66
2022/06/29 13:07:39;;;;;;;15.82;7.60;;;8.60;95.50;;;;;;5041718;28;20041;-67
2022/06/29 13:10:07;;;;;;;14.80;7.28;;;8.70;95.90;;;;;;5047235;28;20025;-67
2022/06/29 13:12:35;;;;;;;12.20;6.60;;;8.70;95.90;;;;;;5049664;28;20033;-67
2022/06/29 13:15:03;;;;;;;14.30;8.13;;;8.60;95.60;;;;;;5048191;28;20074;-66
2022/06/29 13:17:30;;;;;;;10.82;7.40;;;8.60;95.80;;;;;;5047824;28;20033;-66
2022/06/29 13:19:58;;;;;;;18.52;8.27;;;8.60;96.00;;;;;;5042714;28;20036;-67
2022/06/29 13:22:25;;;;;;;14.75;9.50;;;8.60;95.80;;;;;;5051409;28;20036;-67
2022/06/29 13:24:52;;;;;;;15.93;9.88;;;8.60;96.50;;;;;;5043166;28;20065;-67